createdAt,value
2023-10-10T00:00:56.311Z,14.64
2023-10-10T00:03:24.410Z,14.67
2023-10-10T00:05:51.313Z,14.69
2023-10-10T00:08:21.633Z,14.71
2023-10-10T00:10:52.444Z,14.73
2023-10-10T00:13:20.508Z,14.75
2023-10-10T00:15:57.485Z,14.80
2023-10-10T00:18:31.432Z,14.79
2023-10-10T00:21:18.960Z,14.80
2023-10-10T00:23:48.830Z,14.82
2023-10-10T00:26:24.370Z,14.83
2023-10-10T00:28:59.040Z,14.82
2023-10-10T00:31:28.344Z,14.82
2023-10-10T00:33:56.449Z,14.81
2023-10-10T00:36:29.329Z,14.80
2023-10-10T00:39:16.351Z,14.78
2023-10-10T00:41:52.738Z,14.75
2023-10-10T00:44:20.739Z,14.70
2023-10-10T00:46:53.164Z,14.67
2023-10-10T00:49:24.628Z,14.64
2023-10-10T00:51:55.025Z,14.60
2023-10-10T00:54:27.969Z,14.57
2023-10-10T00:56:56.881Z,14.56
2023-10-10T00:59:36.021Z,14.53
2023-10-10T01:02:06.972Z,14.50
2023-10-10T01:04:40.269Z,14.44
2023-10-10T01:07:19.779Z,14.41
2023-10-10T01:09:57.974Z,14.36
2023-10-10T01:12:40.440Z,14.31
2023-10-10T01:15:38.358Z,14.26
2023-10-10T01:18:14.345Z,14.21
2023-10-10T01:20:50.480Z,14.13
2023-10-10T01:23:19.815Z,14.04
2023-10-10T01:25:48.399Z,13.96
2023-10-10T01:28:21.795Z,13.89
2023-10-10T01:31:05.292Z,13.84
2023-10-10T01:33:36.308Z,13.76
2023-10-10T01:36:04.366Z,13.70
2023-10-10T01:38:43.035Z,13.65
2023-10-10T01:41:32.034Z,13.60
2023-10-10T01:44:19.071Z,13.58
2023-10-10T01:46:47.041Z,13.56
2023-10-10T01:49:15.380Z,13.54
2023-10-10T01:51:44.043Z,13.51
2023-10-10T01:54:24.470Z,13.50
2023-10-10T01:56:55.393Z,13.50
2023-10-10T01:59:25.829Z,13.51
2023-10-10T02:01:59.125Z,13.50
2023-10-10T02:04:35.144Z,13.45
2023-10-10T02:07:05.908Z,13.38
2023-10-10T02:09:35.488Z,13.34
2023-10-10T02:12:17.953Z,13.31
2023-10-10T02:14:44.674Z,13.33
2023-10-10T02:17:23.905Z,13.37
2023-10-10T02:19:54.920Z,13.37
2023-10-10T02:22:34.169Z,13.35
2023-10-10T02:25:20.647Z,13.33
2023-10-10T02:28:04.141Z,13.28
2023-10-10T02:30:38.332Z,13.25
2023-10-10T02:33:15.556Z,13.23
2023-10-10T02:35:56.202Z,13.20
2023-10-10T02:38:40.666Z,13.17
2023-10-10T02:41:18.565Z,13.15
2023-10-10T02:43:57.533Z,13.14
2023-10-10T02:46:37.945Z,13.12
2023-10-10T02:49:28.203Z,13.12
2023-10-10T02:51:56.933Z,13.10
2023-10-10T02:54:58.291Z,13.09
2023-10-10T02:57:27.364Z,13.09
2023-10-10T03:00:18.346Z,13.12
2023-10-10T03:02:54.933Z,13.13
2023-10-10T03:05:41.697Z,13.13
2023-10-10T03:08:28.964Z,13.11
2023-10-10T03:10:55.805Z,13.12
2023-10-10T03:13:33.356Z,13.10
2023-10-10T03:16:37.046Z,13.07
2023-10-10T03:19:03.638Z,13.01
2023-10-10T03:21:50.266Z,13.02
2023-10-10T03:24:29.262Z,13.01
2023-10-10T03:27:14.580Z,13.02
2023-10-10T03:29:51.299Z,13.01
2023-10-10T03:32:34.896Z,12.96
2023-10-10T03:35:22.613Z,12.92
2023-10-10T03:37:55.615Z,12.88
2023-10-10T03:40:28.036Z,12.85
2023-10-10T03:43:13.993Z,12.82
2023-10-10T03:46:15.632Z,12.83
2023-10-10T03:49:00.535Z,12.83
2023-10-10T03:51:45.449Z,12.80
2023-10-10T03:54:30.364Z,12.79
2023-10-10T03:57:15.342Z,12.83
2023-10-10T04:00:00.774Z,12.80
2023-10-10T04:02:46.192Z,12.75
2023-10-10T04:05:31.556Z,12.72
2023-10-10T04:08:16.572Z,12.67
2023-10-10T04:11:06.080Z,12.65
2023-10-10T04:13:51.142Z,12.60
2023-10-10T04:16:36.394Z,12.60
2023-10-10T04:19:21.780Z,12.59
2023-10-10T04:22:06.652Z,12.55
2023-10-10T04:24:51.595Z,12.58
2023-10-10T04:27:36.540Z,12.57
2023-10-10T04:30:21.973Z,12.56
2023-10-10T04:33:06.939Z,12.53
2023-10-10T04:35:52.184Z,12.52
2023-10-10T04:38:37.297Z,12.50
2023-10-10T04:41:22.549Z,12.50
2023-10-10T04:44:08.848Z,12.51
2023-10-10T04:46:53.965Z,12.47
2023-10-10T04:49:39.559Z,12.39
2023-10-10T04:52:24.500Z,12.34
2023-10-10T04:55:09.258Z,12.30
2023-10-10T04:57:55.738Z,12.26
2023-10-10T05:00:42.206Z,12.20
2023-10-10T05:03:27.593Z,12.12
2023-10-10T05:06:20.804Z,12.04
2023-10-10T05:09:06.418Z,11.98
2023-10-10T05:11:51.693Z,11.94
2023-10-10T05:14:36.530Z,11.93
2023-10-10T05:17:21.388Z,11.96
2023-10-10T05:20:10.884Z,11.98
2023-10-10T05:22:55.766Z,11.99
2023-10-10T05:25:24.911Z,11.96
2023-10-10T05:27:59.940Z,11.91
2023-10-10T05:30:28.853Z,11.87
2023-10-10T05:33:03.617Z,11.81
2023-10-10T05:35:35.187Z,11.80
2023-10-10T05:38:02.500Z,11.79
2023-10-10T05:40:29.693Z,11.76
2023-10-10T05:42:58.497Z,11.71
2023-10-10T05:45:24.952Z,11.67
2023-10-10T05:47:52.088Z,11.59
2023-10-10T05:50:20.091Z,11.59
2023-10-10T05:52:46.624Z,11.63
2023-10-10T05:55:14.012Z,11.68
2023-10-10T05:57:43.819Z,11.72
2023-10-10T06:00:12.437Z,11.76
2023-10-10T06:02:39.505Z,11.79
2023-10-10T06:05:06.831Z,11.80
2023-10-10T06:07:34.340Z,11.78
2023-10-10T06:10:01.134Z,11.79
2023-10-10T06:12:27.757Z,11.79
2023-10-10T06:14:55.783Z,11.82
2023-10-10T06:17:25.349Z,11.86
2023-10-10T06:19:51.893Z,11.88
2023-10-10T06:22:18.363Z,11.90
2023-10-10T06:24:45.034Z,11.95
2023-10-10T06:27:14.304Z,11.95
2023-10-10T06:29:42.059Z,11.96
2023-10-10T06:32:12.107Z,11.97
2023-10-10T06:34:39.638Z,11.99
2023-10-10T06:37:09.004Z,12.00
2023-10-10T06:39:36.528Z,12.03
2023-10-10T06:42:05.341Z,12.07
2023-10-10T06:44:36.708Z,12.11
2023-10-10T06:47:10.463Z,12.18
2023-10-10T06:49:55.544Z,12.23
2023-10-10T06:52:24.739Z,12.29
2023-10-10T06:54:57.489Z,12.34
2023-10-10T06:57:38.713Z,12.45
2023-10-10T07:00:17.923Z,12.53
2023-10-10T07:02:49.669Z,12.64
2023-10-10T07:05:17.053Z,12.72
2023-10-10T07:07:43.825Z,12.88
2023-10-10T07:10:26.695Z,13.01
2023-10-10T07:12:55.342Z,13.13
2023-10-10T07:15:23.019Z,13.25
2023-10-10T07:17:50.642Z,13.34
2023-10-10T07:20:18.094Z,13.45
2023-10-10T07:22:47.925Z,13.58
2023-10-10T07:25:33.508Z,13.65
2023-10-10T07:28:05.658Z,13.73
2023-10-10T07:30:35.666Z,13.85
2023-10-10T07:33:08.282Z,13.92
2023-10-10T07:35:37.750Z,14.00
2023-10-10T07:38:07.904Z,14.10
2023-10-10T07:40:39.423Z,14.23
2023-10-10T07:43:08.795Z,14.36
2023-10-10T07:45:48.353Z,14.47
2023-10-10T07:48:14.942Z,14.58
2023-10-10T07:50:56.893Z,14.67
2023-10-10T07:53:32.597Z,14.75
2023-10-10T07:55:59.108Z,14.84
2023-10-10T07:58:45.155Z,14.96
2023-10-10T08:01:19.423Z,15.09
2023-10-10T08:03:47.857Z,15.16
2023-10-10T08:06:36.000Z,15.24
2023-10-10T08:09:12.866Z,15.34
2023-10-10T08:11:41.380Z,15.48
2023-10-10T08:14:10.059Z,15.56
2023-10-10T08:16:41.638Z,15.69
2023-10-10T08:19:10.105Z,15.82
2023-10-10T08:21:39.700Z,15.90
2023-10-10T08:24:08.220Z,16.02
2023-10-10T08:26:42.193Z,16.14
2023-10-10T08:29:13.861Z,16.26
2023-10-10T08:31:45.149Z,16.39
2023-10-10T08:34:16.326Z,16.53
2023-10-10T08:37:11.192Z,16.60
2023-10-10T08:39:37.908Z,16.63
2023-10-10T08:42:16.028Z,16.71
2023-10-10T08:44:50.620Z,16.78
2023-10-10T08:47:26.979Z,16.81
2023-10-10T08:49:54.401Z,16.87
2023-10-10T08:52:23.800Z,16.96
2023-10-10T08:54:52.972Z,17.03
2023-10-10T08:57:28.850Z,17.04
2023-10-10T08:59:57.329Z,17.10
2023-10-10T09:02:24.462Z,17.21
2023-10-10T09:04:55.245Z,17.22
2023-10-10T09:07:21.804Z,17.28
2023-10-10T09:10:06.696Z,17.39
2023-10-10T09:12:56.763Z,17.51
2023-10-10T09:15:28.703Z,17.67
2023-10-10T09:18:15.810Z,17.76
2023-10-10T09:20:46.091Z,17.89
2023-10-10T09:23:26.386Z,17.99
2023-10-10T09:26:20.636Z,18.14
2023-10-10T09:28:58.383Z,18.27
2023-10-10T09:31:32.468Z,18.44
2023-10-10T09:34:14.754Z,18.50
2023-10-10T09:36:54.117Z,18.59
2023-10-10T09:39:38.912Z,18.70
2023-10-10T09:42:31.500Z,18.82
2023-10-10T09:45:01.385Z,18.96
2023-10-10T09:47:40.595Z,18.99
2023-10-10T09:50:32.362Z,19.04
2023-10-10T09:52:59.808Z,19.13
2023-10-10T09:55:32.688Z,19.19
2023-10-10T09:58:12.327Z,19.25
2023-10-10T10:00:39.592Z,19.26
2023-10-10T10:03:28.062Z,19.36
2023-10-10T10:07:07.518Z,19.52
2023-10-10T10:09:52.641Z,19.69
2023-10-10T10:12:37.358Z,19.72
2023-10-10T10:15:25.824Z,19.73
2023-10-10T10:18:12.934Z,19.81
2023-10-10T10:20:50.634Z,19.89
2023-10-10T10:23:27.237Z,19.97
2023-10-10T10:26:13.723Z,20.03
2023-10-10T10:28:44.016Z,20.19
2023-10-10T10:31:29.272Z,20.29
2023-10-10T10:34:06.773Z,20.33
2023-10-10T10:36:43.786Z,20.38
2023-10-10T10:39:24.874Z,20.46
2023-10-10T10:41:55.053Z,20.56
2023-10-10T10:44:45.864Z,20.61
2023-10-10T10:47:32.074Z,20.77
2023-10-10T10:49:59.193Z,20.88
2023-10-10T10:52:56.884Z,20.98
2023-10-10T10:55:28.672Z,21.06
2023-10-10T10:58:21.674Z,21.19
2023-10-10T11:01:00.522Z,21.28
2023-10-10T11:03:45.427Z,21.22
2023-10-10T11:06:15.506Z,21.26
2023-10-10T11:08:57.752Z,21.38
2023-10-10T11:11:31.207Z,21.42
2023-10-10T11:14:17.168Z,21.47
2023-10-10T11:16:47.302Z,21.55
2023-10-10T11:19:24.319Z,21.61
2023-10-10T11:22:06.573Z,21.70
2023-10-10T11:24:35.750Z,21.74
2023-10-10T11:27:08.630Z,21.80
2023-10-10T11:29:54.865Z,21.86
2023-10-10T11:32:27.555Z,21.85
2023-10-10T11:35:00.896Z,22.01
2023-10-10T11:40:28.939Z,22.16
2023-10-10T11:43:00.402Z,22.27
2023-10-10T11:45:27.951Z,22.37
2023-10-10T11:48:06.496Z,22.48
2023-10-10T11:51:46.563Z,22.55
2023-10-10T11:54:29.871Z,22.60
2023-10-10T11:57:04.488Z,22.56
2023-10-10T11:59:34.765Z,22.63
2023-10-10T12:02:15.560Z,22.64
2023-10-10T12:04:48.927Z,22.66
2023-10-10T12:07:16.091Z,22.63
2023-10-10T12:09:46.148Z,22.57
2023-10-10T12:12:14.217Z,22.61
2023-10-10T12:14:44.312Z,22.72
2023-10-10T12:17:11.727Z,22.84
2023-10-10T12:19:38.189Z,22.95
2023-10-10T12:22:12.438Z,23.01
2023-10-10T12:24:42.724Z,23.02
2023-10-10T12:27:12.034Z,23.01
2023-10-10T12:29:44.250Z,23.14
2023-10-10T12:32:17.609Z,23.22
2023-10-10T12:34:47.363Z,23.29
2023-10-10T12:37:16.982Z,23.34
2023-10-10T12:39:44.700Z,23.40
2023-10-10T12:42:11.215Z,23.47
2023-10-10T12:44:37.719Z,23.48
2023-10-10T12:47:07.805Z,23.54
2023-10-10T12:49:45.310Z,23.46
2023-10-10T12:54:47.396Z,23.56
2023-10-10T12:57:17.428Z,23.55
2023-10-10T12:59:48.028Z,23.58
2023-10-10T13:02:17.912Z,23.56
2023-10-10T13:04:48.020Z,23.66
2023-10-10T13:07:17.367Z,23.73
2023-10-10T13:09:44.586Z,23.70
2023-10-10T13:12:19.581Z,23.69
2023-10-10T13:14:51.997Z,23.71
2023-10-10T13:17:24.842Z,23.70
2023-10-10T13:19:53.362Z,23.69
2023-10-10T13:22:22.983Z,23.62
2023-10-10T13:24:50.736Z,23.55
2023-10-10T13:27:18.808Z,23.54
2023-10-10T13:29:47.456Z,23.47
2023-10-10T13:32:13.922Z,23.48
2023-10-10T13:34:40.691Z,23.40
2023-10-10T13:37:09.068Z,23.42
2023-10-10T13:39:45.247Z,23.50
2023-10-10T13:42:15.488Z,23.58
2023-10-10T13:44:42.805Z,23.58
2023-10-10T13:47:09.697Z,23.57
2023-10-10T13:49:45.232Z,23.52
2023-10-10T13:52:13.121Z,23.51
2023-10-10T13:54:39.792Z,23.48
2023-10-10T13:57:07.964Z,23.47
2023-10-10T13:59:35.302Z,23.47
2023-10-10T14:02:05.083Z,23.50
2023-10-10T14:04:46.864Z,23.50
2023-10-10T14:09:51.911Z,23.50
2023-10-10T14:12:33.426Z,23.47
2023-10-10T14:15:00.923Z,23.39
2023-10-10T14:19:55.353Z,23.42
2023-10-10T14:22:27.873Z,23.40
2023-10-10T14:24:58.771Z,23.43
2023-10-10T14:27:27.529Z,23.36
2023-10-10T14:29:56.092Z,23.34
2023-10-10T14:32:38.010Z,23.31
2023-10-10T14:35:05.959Z,23.22
2023-10-10T14:37:49.836Z,23.22
2023-10-10T14:40:24.488Z,23.23
2023-10-10T14:42:53.462Z,23.25
2023-10-10T14:45:25.834Z,23.21
2023-10-10T14:47:56.515Z,23.15
2023-10-10T14:50:24.544Z,23.11
2023-10-10T14:52:55.356Z,23.07
2023-10-10T14:55:26.757Z,23.00
2023-10-10T14:57:56.423Z,22.96
2023-10-10T15:00:24.847Z,22.82
2023-10-10T15:02:55.071Z,22.74
2023-10-10T15:05:25.132Z,22.72
2023-10-10T15:07:53.986Z,22.64
2023-10-10T15:10:27.498Z,22.55
2023-10-10T15:12:54.865Z,22.49
2023-10-10T15:15:23.801Z,22.37
2023-10-10T15:17:51.167Z,22.33
2023-10-10T15:20:18.002Z,22.25
2023-10-10T15:22:44.729Z,22.19
2023-10-10T15:25:14.138Z,22.09
2023-10-10T15:27:42.802Z,22.06
2023-10-10T15:30:10.469Z,21.96
2023-10-10T15:32:54.014Z,21.84
2023-10-10T15:35:21.529Z,21.69
2023-10-10T15:37:48.951Z,21.61
2023-10-10T15:40:22.546Z,21.55
2023-10-10T15:42:52.220Z,21.46
2023-10-10T15:45:21.844Z,21.35
2023-10-10T15:47:55.905Z,21.30
2023-10-10T15:50:23.226Z,21.22
2023-10-10T15:52:50.439Z,21.20
2023-10-10T15:55:25.540Z,21.10
2023-10-10T15:57:54.153Z,21.01
2023-10-10T16:00:34.086Z,20.93
2023-10-10T16:03:08.199Z,20.87
2023-10-10T16:05:40.819Z,20.82
2023-10-10T16:08:09.766Z,20.79
2023-10-10T16:10:38.921Z,20.72
2023-10-10T16:13:08.607Z,20.64
2023-10-10T16:15:35.506Z,20.57
2023-10-10T16:18:02.222Z,20.54
2023-10-10T16:20:29.024Z,20.46
2023-10-10T16:22:56.790Z,20.42
2023-10-10T16:25:25.227Z,20.42
2023-10-10T16:27:52.138Z,20.37
2023-10-10T16:30:18.802Z,20.29
2023-10-10T16:32:45.895Z,20.20
2023-10-10T16:35:13.153Z,20.08
2023-10-10T16:37:41.735Z,19.99
2023-10-10T16:40:10.416Z,19.89
2023-10-10T16:42:37.135Z,19.85
2023-10-10T16:45:04.037Z,19.83
2023-10-10T16:47:30.614Z,19.81
2023-10-10T16:49:57.162Z,19.80
2023-10-10T16:52:27.515Z,19.76
2023-10-10T16:54:54.229Z,19.73
2023-10-10T16:57:24.188Z,19.66
2023-10-10T16:59:52.146Z,19.61
2023-10-10T17:02:18.621Z,19.55
2023-10-10T17:04:47.219Z,19.48
2023-10-10T17:07:13.809Z,19.48
2023-10-10T17:09:41.104Z,19.43
2023-10-10T17:12:07.749Z,19.39
2023-10-10T17:14:38.448Z,19.37
2023-10-10T17:17:05.165Z,19.29
2023-10-10T17:19:36.830Z,19.21
2023-10-10T17:22:03.681Z,19.18
2023-10-10T17:24:31.369Z,19.12
2023-10-10T17:26:58.235Z,19.09
2023-10-10T17:29:24.967Z,19.05
2023-10-10T17:31:54.137Z,19.00
2023-10-10T17:34:23.187Z,18.93
2023-10-10T17:36:51.409Z,18.89
2023-10-10T17:39:18.301Z,18.79
2023-10-10T17:41:48.882Z,18.71
2023-10-10T17:44:18.244Z,18.69
2023-10-10T17:46:58.838Z,18.62
2023-10-10T17:49:25.348Z,18.55
2023-10-10T17:51:54.385Z,18.41
2023-10-10T17:54:21.040Z,18.33
2023-10-10T17:56:48.591Z,18.24
2023-10-10T17:59:17.969Z,18.08
2023-10-10T18:01:45.188Z,17.94
2023-10-10T18:04:14.780Z,17.83
2023-10-10T18:06:41.938Z,17.76
2023-10-10T18:09:11.415Z,17.69
2023-10-10T18:11:38.893Z,17.69
2023-10-10T18:14:06.517Z,17.72
2023-10-10T18:16:35.375Z,17.74
2023-10-10T18:19:02.408Z,17.73
2023-10-10T18:21:31.172Z,17.74
2023-10-10T18:23:58.064Z,17.71
2023-10-10T18:26:25.642Z,17.61
2023-10-10T18:28:53.268Z,17.38
2023-10-10T18:31:25.972Z,17.11
2023-10-10T18:33:53.321Z,16.90
2023-10-10T18:36:21.555Z,16.83
2023-10-10T18:38:49.427Z,16.79
2023-10-10T18:41:24.326Z,16.79
2023-10-10T18:43:54.823Z,16.72
2023-10-10T18:46:45.948Z,16.68
2023-10-10T18:49:14.254Z,16.57
2023-10-10T18:51:40.992Z,16.43
2023-10-10T18:54:12.051Z,16.36
2023-10-10T18:56:39.033Z,16.21
2023-10-10T18:59:05.833Z,16.09
2023-10-10T19:01:35.597Z,16.01
2023-10-10T19:04:02.275Z,15.97
2023-10-10T19:06:30.068Z,15.91
2023-10-10T19:09:01.331Z,15.86
2023-10-10T19:11:28.848Z,15.84
2023-10-10T19:13:56.826Z,15.77
2023-10-10T19:16:23.505Z,15.70
2023-10-10T19:18:50.137Z,15.68
2023-10-10T19:21:18.464Z,15.65
2023-10-10T19:23:51.884Z,15.64
2023-10-10T19:26:18.849Z,15.59
2023-10-10T19:28:46.814Z,15.61
2023-10-10T19:31:15.816Z,15.60
2023-10-10T19:33:42.710Z,15.60
2023-10-10T19:36:09.562Z,15.60
2023-10-10T19:38:36.167Z,15.58
2023-10-10T19:41:08.697Z,15.57
2023-10-10T19:43:40.329Z,15.53
2023-10-10T19:46:13.584Z,15.48
2023-10-10T19:48:41.880Z,15.48
2023-10-10T19:51:14.390Z,15.42
2023-10-10T19:53:40.907Z,15.39
2023-10-10T19:56:13.825Z,15.33
2023-10-10T19:58:42.956Z,15.30
2023-10-10T20:01:10.173Z,15.24
2023-10-10T20:03:37.343Z,15.23
2023-10-10T20:06:07.237Z,15.19
2023-10-10T20:08:35.647Z,15.19
2023-10-10T20:11:04.843Z,15.21
2023-10-10T20:13:31.652Z,15.17
2023-10-10T20:15:58.263Z,15.17
2023-10-10T20:18:26.145Z,15.17
2023-10-10T20:20:53.160Z,15.16
2023-10-10T20:23:21.658Z,15.12
2023-10-10T20:25:51.748Z,15.09
2023-10-10T20:28:18.356Z,15.05
2023-10-10T20:30:46.692Z,15.01
2023-10-10T20:33:17.549Z,14.99
2023-10-10T20:35:45.959Z,14.96
2023-10-10T20:38:13.586Z,14.93
2023-10-10T20:40:44.445Z,14.88
2023-10-10T20:43:13.795Z,14.87
2023-10-10T20:45:41.006Z,14.85
2023-10-10T20:48:23.017Z,14.83
2023-10-10T20:50:49.795Z,14.82
2023-10-10T20:53:17.517Z,14.80
2023-10-10T20:55:47.386Z,14.78
2023-10-10T20:58:15.216Z,14.75
2023-10-10T21:00:42.345Z,14.71
2023-10-10T21:03:11.576Z,14.71
2023-10-10T21:05:44.308Z,14.68
2023-10-10T21:08:11.115Z,14.66
2023-10-10T21:10:41.993Z,14.63
2023-10-10T21:13:09.039Z,14.62
2023-10-10T21:15:35.818Z,14.60
2023-10-10T21:18:02.453Z,14.58
2023-10-10T21:20:31.702Z,14.55
2023-10-10T21:23:00.223Z,14.49
2023-10-10T21:25:27.583Z,14.44
2023-10-10T21:27:58.011Z,14.40
2023-10-10T21:30:34.604Z,14.38
2023-10-10T21:33:03.475Z,14.32
2023-10-10T21:35:31.389Z,14.29
2023-10-10T21:38:03.270Z,14.28
2023-10-10T21:40:32.952Z,14.22
2023-10-10T21:43:00.664Z,14.22
2023-10-10T21:45:33.426Z,14.16
2023-10-10T21:48:00.544Z,14.11
2023-10-10T21:50:27.343Z,14.09
2023-10-10T21:52:54.158Z,14.05
2023-10-10T21:55:22.787Z,14.02
2023-10-10T21:57:51.058Z,13.99
2023-10-10T22:00:25.929Z,13.96
2023-10-10T22:02:53.316Z,13.89
2023-10-10T22:05:20.700Z,13.88
2023-10-10T22:07:48.396Z,13.84
2023-10-10T22:10:21.378Z,13.79
2023-10-10T22:12:56.520Z,13.76
2023-10-10T22:15:26.146Z,13.74
2023-10-10T22:17:55.942Z,13.73
2023-10-10T22:20:24.118Z,13.70
2023-10-10T22:22:50.764Z,13.69
2023-10-10T22:25:20.410Z,13.67
2023-10-10T22:27:48.045Z,13.65
2023-10-10T22:30:16.857Z,13.62
2023-10-10T22:32:47.243Z,13.60
2023-10-10T22:35:14.728Z,13.55
2023-10-10T22:37:41.570Z,13.52
2023-10-10T22:40:13.012Z,13.53
2023-10-10T22:42:39.746Z,13.52
2023-10-10T22:45:08.343Z,13.49
2023-10-10T22:47:35.035Z,13.46
2023-10-10T22:50:06.475Z,13.42
2023-10-10T22:52:39.054Z,13.39
2023-10-10T22:55:08.360Z,13.36
2023-10-10T22:57:38.041Z,13.33
2023-10-10T23:00:14.305Z,13.31
2023-10-10T23:02:49.969Z,13.29
2023-10-10T23:05:17.987Z,13.28
2023-10-10T23:07:46.353Z,13.26
2023-10-10T23:10:13.870Z,13.23
2023-10-10T23:12:41.978Z,13.23
2023-10-10T23:15:12.868Z,13.21
2023-10-10T23:17:41.170Z,13.16
2023-10-10T23:20:14.205Z,13.12
2023-10-10T23:22:41.633Z,13.09
2023-10-10T23:25:13.298Z,13.06
2023-10-10T23:27:43.350Z,13.04
2023-10-10T23:30:14.117Z,13.02
2023-10-10T23:32:42.739Z,12.98
2023-10-10T23:35:10.130Z,12.98
2023-10-10T23:37:43.230Z,12.98
2023-10-10T23:40:17.424Z,12.96
2023-10-10T23:42:45.121Z,12.93
2023-10-10T23:45:13.650Z,12.91
2023-10-10T23:47:43.520Z,12.86
2023-10-10T23:50:13.761Z,12.85
2023-10-10T23:52:45.825Z,12.85
2023-10-10T23:55:17.813Z,12.87
2023-10-10T23:57:46.636Z,12.87
